Time;durP1;ratioP1;P1;durP2;ratioP2;P2;SDS_P1;SDS_P2;PMS_P1;PMS_P2;Temp;Humidity;BMP_temperature;BMP_pressure;BME280_temperature;BME280_humidity;BME280_pressure;Samples;Min_cycle;Max_cycle;Signal;HPM_P1;HPM_P2
2022/07/10 00:00:32;;;;;;;7.90;1.58;;;13.50;99.90;;;;;;6217406;23;20085;-83
2022/07/10 00:02:58;;;;;;;5.30;1.48;;;13.60;99.90;;;;;;6192667;22;20016;-83
2022/07/10 00:05:24;;;;;;;6.72;1.75;;;13.60;99.90;;;;;;6217762;23;20059;-83
2022/07/10 00:07:51;;;;;;;7.28;1.67;;;13.50;99.90;;;;;;6192152;23;20008;-82
2022/07/10 00:10:18;;;;;;;9.50;1.70;;;13.50;99.90;;;;;;6192633;23;20047;-83
2022/07/10 00:12:45;;;;;;;6.50;1.55;;;13.40;99.90;;;;;;6191228;23;20050;-83
2022/07/10 00:15:11;;;;;;;8.52;1.70;;;13.30;99.90;;;;;;6218827;23;20008;-83
2022/07/10 00:17:38;;;;;;;8.73;1.60;;;13.30;99.90;;;;;;6194488;23;20035;-82
2022/07/10 00:20:05;;;;;;;7.93;1.65;;;13.20;99.90;;;;;;6193865;23;20058;-83
2022/07/10 00:22:31;;;;;;;7.93;1.65;;;13.10;99.90;;;;;;6194187;23;20034;-82
2022/07/10 00:24:57;;;;;;;4.03;1.73;;;13.00;99.90;;;;;;6194157;23;20095;-82
2022/07/10 00:27:23;;;;;;;6.20;1.40;;;12.90;99.90;;;;;;6219038;23;20095;-83
2022/07/10 00:29:48;;;;;;;683.67;647.33;;;12.90;99.90;;;;;;6191487;23;20016;-83
2022/07/10 00:32:14;;;;;;;675.67;644.30;;;12.90;99.90;;;;;;6218247;23;20012;-83
2022/07/10 00:34:40;;;;;;;659.80;621.78;;;12.90;99.90;;;;;;6218941;23;20437;-82
2022/07/10 00:37:05;;;;;;;644.00;612.80;;;12.90;99.90;;;;;;6194594;23;20008;-83
2022/07/10 00:39:31;;;;;;;558.15;530.53;;;12.90;99.90;;;;;;6217933;23;20008;-84
2022/07/10 00:42:11;;;;;;;641.00;609.65;;;12.80;99.90;;;;;;6218634;23;20448;-83
2022/07/10 00:44:37;;;;;;;587.63;557.83;;;12.70;99.90;;;;;;6218446;23;20012;-83
2022/07/10 00:47:07;;;;;;;494.58;470.27;;;12.70;99.90;;;;;;6218792;23;20066;-84
2022/07/10 00:49:34;;;;;;;603.85;572.95;;;12.70;99.90;;;;;;6218267;23;20016;-83
2022/07/10 00:52:03;;;;;;;535.35;508.92;;;12.60;99.90;;;;;;6218473;23;20147;-84
2022/07/10 00:54:30;;;;;;;551.72;525.10;;;12.50;99.90;;;;;;6218064;23;20389;-84
2022/07/10 00:56:56;;;;;;;501.42;477.55;;;12.50;99.90;;;;;;6218359;23;20097;-84
2022/07/10 00:59:23;;;;;;;563.28;534.83;;;12.30;99.90;;;;;;6217700;23;20015;-84
2022/07/10 01:01:50;;;;;;;517.90;489.65;;;12.30;99.90;;;;;;6217851;23;20015;-84
2022/07/10 01:04:16;;;;;;;1818.78;999.90;;;12.30;99.90;;;;;;6218756;23;20054;-84
2022/07/10 01:06:41;;;;;;;1999.90;999.90;;;12.10;99.90;;;;;;6218815;23;20016;-84
2022/07/10 01:09:07;;;;;;;1999.90;999.90;;;12.10;99.90;;;;;;6217901;23;20016;-84
2022/07/10 01:11:34;;;;;;;1999.90;999.90;;;12.00;99.90;;;;;;6218174;23;20019;-83
2022/07/10 01:14:03;;;;;;;1999.90;999.90;;;12.00;99.90;;;;;;6193574;23;20333;-83
2022/07/10 01:16:29;;;;;;;1999.90;999.90;;;11.90;99.90;;;;;;6218506;23;20008;-83
2022/07/10 01:18:56;;;;;;;1999.90;999.90;;;11.90;99.90;;;;;;6217370;23;20055;-83
2022/07/10 01:21:33;;;;;;;1647.18;999.90;;;11.80;99.90;;;;;;6218228;23;20345;-83
2022/07/10 01:24:03;;;;;;;1999.90;999.90;;;11.70;99.90;;;;;;6192616;23;20023;-83
2022/07/10 01:26:28;;;;;;;1999.90;999.90;;;11.60;99.90;;;;;;6218163;23;20057;-83
2022/07/10 01:28:55;;;;;;;7.22;1.60;;;11.60;99.90;;;;;;6218410;23;20087;-83
2022/07/10 01:31:26;;;;;;;7.60;1.88;;;11.50;99.90;;;;;;6192873;23;20019;-83
2022/07/10 01:33:52;;;;;;;6.07;2.00;;;11.40;99.90;;;;;;6192990;23;20350;-83
2022/07/10 01:36:18;;;;;;;7.38;2.00;;;11.40;99.90;;;;;;6193347;23;20012;-83
2022/07/10 01:38:43;;;;;;;7.63;1.83;;;11.40;99.90;;;;;;6218184;23;20067;-82
2022/07/10 01:41:09;;;;;;;6.90;2.38;;;11.30;99.90;;;;;;6217388;23;20519;-83
2022/07/10 01:43:42;;;;;;;8.15;1.90;;;11.30;99.90;;;;;;6192382;23;20015;-83
2022/07/10 01:46:10;;;;;;;6.50;1.65;;;11.30;99.90;;;;;;6218491;23;20012;-83
2022/07/10 01:48:37;;;;;;;10.05;2.00;;;11.30;99.90;;;;;;6193056;23;20016;-83
2022/07/10 01:51:05;;;;;;;6.97;1.70;;;11.20;99.90;;;;;;6217485;23;20039;-82
2022/07/10 01:53:30;;;;;;;6.75;2.00;;;11.20;99.90;;;;;;6193212;23;20512;-82
2022/07/10 01:55:56;;;;;;;6.55;1.63;;;11.20;99.90;;;;;;6218506;23;20043;-83
2022/07/10 01:58:22;;;;;;;3.28;1.48;;;11.20;99.90;;;;;;6192020;23;20091;-83
2022/07/10 02:00:48;;;;;;;4.78;1.75;;;11.20;99.90;;;;;;6192696;23;20027;-82
2022/07/10 02:05:58;;;;;;;10.38;1.98;;;11.20;99.90;;;;;;6217721;23;20090;-83
2022/07/10 02:08:23;;;;;;;3.80;1.58;;;11.20;99.90;;;;;;6192841;23;20468;-82
2022/07/10 02:10:49;;;;;;;2.85;1.42;;;11.10;99.90;;;;;;6192622;23;20020;-82
2022/07/10 02:13:17;;;;;;;7.43;1.52;;;11.20;99.90;;;;;;6192665;22;20023;-82
2022/07/10 02:15:43;;;;;;;5.30;1.60;;;11.20;99.90;;;;;;6193113;23;20058;-82
2022/07/10 02:18:09;;;;;;;5.15;1.27;;;11.20;99.90;;;;;;6192798;23;20413;-83
2022/07/10 02:20:36;;;;;;;2.90;1.30;;;11.10;99.90;;;;;;6191945;23;20047;-82
2022/07/10 02:23:02;;;;;;;1.98;1.25;;;11.10;99.90;;;;;;6192922;22;20020;-82
2022/07/10 02:25:27;;;;;;;6.00;1.38;;;11.10;99.90;;;;;;6192531;23;20012;-82
2022/07/10 02:27:53;;;;;;;4.07;1.17;;;11.10;99.90;;;;;;6216882;23;20012;-82
2022/07/10 02:30:19;;;;;;;2.95;0.80;;;11.00;99.90;;;;;;6218087;23;20348;-82
2022/07/10 02:32:45;;;;;;;1.48;1.00;;;11.00;99.90;;;;;;6218612;23;20468;-83
2022/07/10 02:35:10;;;;;;;1.00;0.90;;;11.00;99.90;;;;;;6192636;23;20506;-83
2022/07/10 02:37:37;;;;;;;2.45;1.15;;;11.00;99.90;;;;;;6192348;23;20048;-82
2022/07/10 02:40:06;;;;;;;2.25;1.23;;;10.90;99.90;;;;;;6218291;23;20035;-83
2022/07/10 02:42:31;;;;;;;1.95;0.90;;;10.90;99.90;;;;;;6192294;23;20012;-82
2022/07/10 02:44:57;;;;;;;2.03;1.10;;;10.90;99.90;;;;;;6192956;23;20043;-82
2022/07/10 02:47:25;;;;;;;0.90;0.70;;;11.00;99.90;;;;;;6218900;23;20012;-82
2022/07/10 02:49:51;;;;;;;0.65;0.65;;;10.90;99.90;;;;;;6192214;23;20098;-82
2022/07/10 02:52:16;;;;;;;1.40;0.80;;;10.80;99.90;;;;;;6217537;23;20015;-83
2022/07/10 02:54:42;;;;;;;0.70;0.60;;;10.80;99.90;;;;;;6219076;23;20016;-82
2022/07/10 02:57:08;;;;;;;1.00;0.77;;;10.80;99.90;;;;;;6192731;23;20025;-83
2022/07/10 02:59:33;;;;;;;1.23;0.90;;;10.80;99.90;;;;;;6218707;23;20087;-82
2022/07/10 03:02:00;;;;;;;1.20;0.85;;;10.80;99.90;;;;;;6193171;23;20035;-82
2022/07/10 03:04:26;;;;;;;2.15;0.80;;;10.80;99.90;;;;;;6191424;23;20012;-82
2022/07/10 03:06:52;;;;;;;2.05;0.90;;;10.70;99.90;;;;;;6192574;23;20448;-83
2022/07/10 03:09:17;;;;;;;0.80;0.60;;;10.70;99.90;;;;;;6192731;23;20033;-82
2022/07/10 03:11:43;;;;;;;0.98;0.70;;;10.60;99.90;;;;;;6193488;23;20353;-82
2022/07/10 03:14:08;;;;;;;0.75;0.70;;;10.70;99.90;;;;;;6192996;23;20008;-82
2022/07/10 03:16:34;;;;;;;0.55;0.55;;;10.70;99.90;;;;;;6192374;23;20042;-82
2022/07/10 03:19:00;;;;;;;0.40;0.40;;;10.70;99.90;;;;;;6192120;23;20009;-82
2022/07/10 03:21:25;;;;;;;0.63;0.50;;;10.70;99.90;;;;;;6192798;23;20015;-83
2022/07/10 03:23:51;;;;;;;0.57;0.50;;;10.80;99.90;;;;;;6200937;22;20455;-81
2022/07/10 03:26:16;;;;;;;0.70;0.50;;;10.80;99.90;;;;;;6222105;22;20011;-81
2022/07/10 03:28:42;;;;;;;0.55;0.50;;;10.80;99.90;;;;;;6247297;22;20090;-81
2022/07/10 03:31:08;;;;;;;0.73;0.50;;;11.00;99.90;;;;;;6222688;22;20015;-81
2022/07/10 03:33:33;;;;;;;0.70;0.60;;;11.00;99.90;;;;;;6216836;23;20019;-81
2022/07/10 03:36:01;;;;;;;0.50;0.50;;;11.10;99.90;;;;;;6191341;23;20500;-81
2022/07/10 03:38:27;;;;;;;0.60;0.50;;;11.20;99.90;;;;;;6192014;23;20013;-81
2022/07/10 03:40:52;;;;;;;0.50;0.40;;;11.20;99.90;;;;;;6192072;23;20012;-81
2022/07/10 03:43:18;;;;;;;0.60;0.40;;;11.40;99.90;;;;;;6192003;22;20008;-81
2022/07/10 03:45:43;;;;;;;0.35;0.35;;;11.40;99.90;;;;;;6191528;23;20023;-81
2022/07/10 03:48:09;;;;;;;0.28;0.28;;;11.40;99.90;;;;;;6191706;23;20050;-81
2022/07/10 03:50:35;;;;;;;0.50;0.38;;;11.50;99.90;;;;;;6194138;23;20023;-81
2022/07/10 03:53:00;;;;;;;0.30;0.30;;;11.50;99.90;;;;;;6219405;23;20020;-81
2022/07/10 03:55:26;;;;;;;0.20;0.20;;;11.70;99.90;;;;;;6194059;23;20008;-80
2022/07/10 03:57:54;;;;;;;0.20;0.20;;;11.70;99.90;;;;;;6193721;23;20091;-81
2022/07/10 04:00:25;;;;;;;0.20;0.20;;;11.70;99.90;;;;;;6194184;23;20019;-81
2022/07/10 04:03:02;;;;;;;0.15;0.15;;;11.80;99.90;;;;;;6219720;23;20362;-81
2022/07/10 04:05:29;;;;;;;0.10;0.10;;;11.80;99.90;;;;;;6193759;23;20012;-81
2022/07/10 04:07:58;;;;;;;0.20;0.20;;;11.80;99.90;;;;;;6218912;23;20016;-81
2022/07/10 04:10:25;;;;;;;0.15;0.15;;;11.80;99.90;;;;;;6194040;23;20039;-81
2022/07/10 04:12:51;;;;;;;0.20;0.20;;;11.90;99.90;;;;;;6218927;23;20367;-81
2022/07/10 04:15:17;;;;;;;0.13;0.10;;;11.90;99.90;;;;;;6192903;23;20077;-81
2022/07/10 04:17:43;;;;;;;0.22;0.20;;;12.00;99.90;;;;;;6193354;23;20043;-81
2022/07/10 04:20:09;;;;;;;1.08;0.20;;;12.10;99.90;;;;;;6193428;23;20008;-81
2022/07/10 04:22:35;;;;;;;0.10;0.10;;;12.10;99.90;;;;;;6193910;23;20008;-81
2022/07/10 04:25:01;;;;;;;0.43;0.10;;;12.10;99.90;;;;;;6218456;23;20050;-81
2022/07/10 04:27:28;;;;;;;0.15;0.10;;;12.20;99.90;;;;;;6218587;23;20014;-81
2022/07/10 04:29:53;;;;;;;0.10;0.10;;;12.20;99.90;;;;;;6193638;23;20011;-81
2022/07/10 04:32:19;;;;;;;0.10;0.10;;;12.40;99.90;;;;;;6218607;23;20036;-81
2022/07/10 04:34:45;;;;;;;0.10;0.10;;;12.50;99.90;;;;;;6193267;23;20008;-81
2022/07/10 04:37:10;;;;;;;0.10;0.10;;;12.60;99.90;;;;;;6218901;23;20031;-81
2022/07/10 04:39:40;;;;;;;0.10;0.10;;;12.70;99.90;;;;;;6218219;23;20020;-81
2022/07/10 04:42:06;;;;;;;0.05;0.05;;;12.80;99.90;;;;;;6218385;23;20012;-81
2022/07/10 04:44:32;;;;;;;0.10;0.10;;;12.80;99.90;;;;;;6218327;23;20051;-81
2022/07/10 04:46:58;;;;;;;0.10;0.10;;;12.90;99.90;;;;;;6193492;23;20016;-81
2022/07/10 04:49:24;;;;;;;0.10;0.10;;;12.90;99.90;;;;;;6193548;23;20054;-81
2022/07/10 04:51:50;;;;;;;0.10;0.10;;;13.00;99.90;;;;;;6218445;23;20016;-81
2022/07/10 04:54:15;;;;;;;0.10;0.10;;;13.00;99.90;;;;;;6193767;23;20016;-81
2022/07/10 04:56:41;;;;;;;0.00;0.00;;;13.10;99.90;;;;;;6193645;23;20012;-81
2022/07/10 04:59:07;;;;;;;0.10;0.10;;;13.10;99.90;;;;;;6192970;23;20012;-81
2022/07/10 05:01:33;;;;;;;0.00;0.00;;;13.20;99.90;;;;;;6193169;23;20023;-81
2022/07/10 05:03:59;;;;;;;0.00;0.00;;;13.30;99.90;;;;;;6218306;23;20008;-81
2022/07/10 05:06:24;;;;;;;0.10;0.10;;;13.40;99.90;;;;;;6217762;23;20011;-81
2022/07/10 05:08:50;;;;;;;0.10;0.10;;;13.50;99.90;;;;;;6193625;23;20441;-81
2022/07/10 05:11:16;;;;;;;0.00;0.00;;;13.50;99.90;;;;;;6193522;23;20117;-81
2022/07/10 05:13:45;;;;;;;0.10;0.10;;;13.70;99.90;;;;;;6193481;23;20008;-81
2022/07/10 05:16:10;;;;;;;0.00;0.00;;;13.80;99.90;;;;;;6218066;23;20078;-81
2022/07/10 05:18:36;;;;;;;0.00;0.00;;;13.90;99.90;;;;;;6192656;23;20009;-81
2022/07/10 05:21:02;;;;;;;0.00;0.00;;;14.00;99.90;;;;;;6218482;23;20066;-81
2022/07/10 05:23:27;;;;;;;0.03;0.03;;;14.00;99.90;;;;;;6193835;22;20351;-81
2022/07/10 05:25:53;;;;;;;0.00;0.00;;;14.00;99.90;;;;;;6192903;23;20395;-81
2022/07/10 05:28:19;;;;;;;0.10;0.10;;;14.10;99.90;;;;;;6193516;23;20019;-81
2022/07/10 05:30:44;;;;;;;0.00;0.00;;;14.10;99.90;;;;;;6218729;23;20016;-81
2022/07/10 05:33:10;;;;;;;0.00;0.00;;;14.10;99.90;;;;;;6192422;22;20222;-81
2022/07/10 05:35:35;;;;;;;0.22;0.20;;;14.20;99.90;;;;;;6192595;23;20016;-81
2022/07/10 05:38:01;;;;;;;0.10;0.10;;;14.30;99.90;;;;;;6192287;23;20005;-81
2022/07/10 05:40:29;;;;;;;0.10;0.10;;;14.30;99.90;;;;;;6193287;23;20058;-81
2022/07/10 05:42:55;;;;;;;0.10;0.10;;;14.40;99.90;;;;;;6193593;23;20019;-81
2022/07/10 05:45:20;;;;;;;0.05;0.05;;;14.50;99.90;;;;;;6217427;23;20016;-81
2022/07/10 05:47:46;;;;;;;0.03;0.00;;;14.60;99.90;;;;;;6193082;23;20099;-81
2022/07/10 05:50:12;;;;;;;0.03;0.03;;;14.60;99.90;;;;;;6192889;23;20012;-81
2022/07/10 05:52:38;;;;;;;0.00;0.00;;;14.70;99.90;;;;;;6193154;23;20008;-81
2022/07/10 05:55:04;;;;;;;0.10;0.10;;;14.70;99.90;;;;;;6192886;23;20019;-81
2022/07/10 05:57:31;;;;;;;0.08;0.08;;;14.80;99.90;;;;;;6192989;23;20004;-81
2022/07/10 05:59:57;;;;;;;0.10;0.10;;;14.90;99.90;;;;;;6217567;23;20012;-81
2022/07/10 06:02:22;;;;;;;0.10;0.10;;;15.00;99.90;;;;;;6193199;23;20095;-81
2022/07/10 06:04:49;;;;;;;0.10;0.10;;;15.10;99.90;;;;;;6192558;23;20351;-81
2022/07/10 06:07:15;;;;;;;0.10;0.10;;;15.10;99.90;;;;;;6218732;23;20038;-81
2022/07/10 06:09:41;;;;;;;0.00;0.00;;;15.10;99.90;;;;;;6217538;23;20036;-81
2022/07/10 06:12:09;;;;;;;0.00;0.00;;;15.10;99.90;;;;;;6192247;23;20062;-81
2022/07/10 06:14:35;;;;;;;0.00;0.00;;;15.10;99.90;;;;;;6192473;23;20008;-82
2022/07/10 06:17:01;;;;;;;0.10;0.10;;;15.10;99.90;;;;;;6193070;23;20012;-81
2022/07/10 06:19:27;;;;;;;0.00;0.00;;;15.00;99.90;;;;;;6192694;23;20008;-81
2022/07/10 06:22:30;;;;;;;0.10;0.10;;;15.10;99.90;;;;;;6217620;23;20023;-81
2022/07/10 06:24:38;;;;;;;0.10;0.10;;;15.00;99.90;;;;;;6216629;23;20099;-81
2022/07/10 06:27:05;;;;;;;0.10;0.10;;;15.00;99.90;;;;;;6217626;23;20095;-81
2022/07/10 06:29:30;;;;;;;0.10;0.10;;;14.90;99.90;;;;;;6192817;23;20095;-81
2022/07/10 06:31:56;;;;;;;0.03;0.03;;;14.90;99.90;;;;;;6192776;23;20086;-81
2022/07/10 06:34:22;;;;;;;0.00;0.00;;;15.00;99.90;;;;;;6192369;23;20019;-81
2022/07/10 06:36:47;;;;;;;0.13;0.10;;;14.90;99.90;;;;;;6219280;23;20479;-81
2022/07/10 06:39:13;;;;;;;0.10;0.10;;;14.90;99.90;;;;;;6192275;23;20014;-81
2022/07/10 06:41:38;;;;;;;0.10;0.10;;;15.00;99.90;;;;;;6193012;23;20016;-82
2022/07/10 06:44:04;;;;;;;0.10;0.10;;;15.00;99.90;;;;;;6192440;23;20068;-82
2022/07/10 06:46:31;;;;;;;0.30;0.10;;;14.90;99.90;;;;;;6192438;23;20012;-82
2022/07/10 06:48:57;;;;;;;0.80;0.22;;;14.90;99.90;;;;;;6216942;23;20108;-82
2022/07/10 06:51:23;;;;;;;0.30;0.20;;;14.90;99.90;;;;;;6192046;23;20027;-82
2022/07/10 06:53:49;;;;;;;0.10;0.10;;;15.00;99.90;;;;;;6217334;23;20039;-82
2022/07/10 06:56:16;;;;;;;0.10;0.10;;;15.00;99.90;;;;;;6216981;23;20008;-82
2022/07/10 06:58:42;;;;;;;0.10;0.10;;;15.00;99.90;;;;;;6192057;23;20082;-83
2022/07/10 07:01:07;;;;;;;0.10;0.10;;;15.10;99.90;;;;;;6192061;23;20027;-82
2022/07/10 07:03:33;;;;;;;0.10;0.10;;;15.20;99.90;;;;;;6214785;23;20008;-82
2022/07/10 07:05:59;;;;;;;0.10;0.10;;;15.30;99.90;;;;;;6191415;23;20049;-81
2022/07/10 07:08:24;;;;;;;0.00;0.00;;;15.30;99.90;;;;;;6217286;23;20022;-83
2022/07/10 07:10:50;;;;;;;0.10;0.10;;;15.60;99.90;;;;;;6192573;23;20016;-84
2022/07/10 07:13:15;;;;;;;0.08;0.08;;;15.60;99.90;;;;;;6191650;22;20448;-84
2022/07/10 07:15:50;;;;;;;0.47;0.30;;;15.70;99.90;;;;;;6191988;23;20051;-84
2022/07/10 07:18:16;;;;;;;0.03;0.03;;;15.80;99.90;;;;;;6217503;23;20421;-84
2022/07/10 07:23:27;;;;;;;0.00;0.00;;;15.90;99.90;;;;;;6218387;22;20031;-84
2022/07/10 07:25:53;;;;;;;0.03;0.03;;;16.00;99.90;;;;;;6195847;23;20065;-85
2022/07/10 07:28:19;;;;;;;0.00;0.00;;;16.20;99.90;;;;;;6195622;23;20019;-85
2022/07/10 07:30:48;;;;;;;0.10;0.10;;;16.30;99.90;;;;;;6220501;23;20008;-85
2022/07/10 07:33:14;;;;;;;0.00;0.00;;;16.40;99.90;;;;;;6195058;22;20008;-84
2022/07/10 07:35:40;;;;;;;0.00;0.00;;;16.40;99.90;;;;;;6195368;23;20008;-84
2022/07/10 07:38:06;;;;;;;0.00;0.00;;;16.50;99.90;;;;;;6195202;23;20062;-84
2022/07/10 07:40:32;;;;;;;0.05;0.05;;;16.50;99.90;;;;;;6195865;23;20008;-84
2022/07/10 07:42:58;;;;;;;0.20;0.00;;;16.50;99.90;;;;;;6221143;23;20044;-84
2022/07/10 07:45:24;;;;;;;0.00;0.00;;;16.60;99.90;;;;;;6195422;23;20019;-83
2022/07/10 07:47:59;;;;;;;0.03;0.03;;;16.50;99.90;;;;;;6195565;23;20054;-84
2022/07/10 07:50:26;;;;;;;0.20;0.20;;;16.60;99.90;;;;;;6195079;23;20050;-83
2022/07/10 07:52:53;;;;;;;0.00;0.00;;;16.60;99.90;;;;;;6195445;23;20094;-85
2022/07/10 07:55:20;;;;;;;0.00;0.00;;;16.70;99.90;;;;;;6195791;23;20470;-83
2022/07/10 07:57:45;;;;;;;0.00;0.00;;;16.60;99.90;;;;;;6197089;23;20012;-84
2022/07/10 08:00:12;;;;;;;0.00;0.00;;;16.60;99.90;;;;;;6195792;23;20012;-85
2022/07/10 08:02:38;;;;;;;0.00;0.00;;;16.60;99.90;;;;;;6219382;23;20019;-83
2022/07/10 08:05:05;;;;;;;0.00;0.00;;;16.50;99.90;;;;;;6195655;23;20448;-87
2022/07/10 08:07:39;;;;;;;0.00;0.00;;;16.50;99.90;;;;;;6195604;23;20043;-83
2022/07/10 08:10:07;;;;;;;0.03;0.00;;;16.40;99.90;;;;;;6195173;23;20087;-83
2022/07/10 08:12:33;;;;;;;0.32;0.22;;;16.30;99.90;;;;;;6195700;23;20008;-83
2022/07/10 08:14:59;;;;;;;0.05;0.00;;;16.10;99.90;;;;;;6194944;23;20066;-83
2022/07/10 08:17:25;;;;;;;0.00;0.00;;;16.10;99.90;;;;;;6195403;23;20011;-82
2022/07/10 08:19:51;;;;;;;0.00;0.00;;;16.00;99.90;;;;;;6193920;23;20402;-83
2022/07/10 08:22:16;;;;;;;0.10;0.10;;;16.00;99.90;;;;;;6220530;23;20012;-83
2022/07/10 08:24:42;;;;;;;0.00;0.00;;;15.90;99.90;;;;;;6194317;23;20353;-83
2022/07/10 08:27:08;;;;;;;0.00;0.00;;;16.00;99.90;;;;;;6195085;23;20058;-83
2022/07/10 08:29:34;;;;;;;0.00;0.00;;;16.10;99.90;;;;;;6195058;23;20015;-83
2022/07/10 08:31:59;;;;;;;0.00;0.00;;;16.20;99.90;;;;;;6194038;23;20016;-82
2022/07/10 08:34:27;;;;;;;0.10;0.10;;;16.20;99.90;;;;;;6194721;23;20008;-83
2022/07/10 08:36:53;;;;;;;0.00;0.00;;;16.30;99.90;;;;;;6193877;23;20004;-83
2022/07/10 08:39:21;;;;;;;0.00;0.00;;;16.40;99.90;;;;;;6217717;23;20069;-83
2022/07/10 08:41:49;;;;;;;0.00;0.00;;;16.40;99.90;;;;;;6193649;23;20034;-83
2022/07/10 08:44:16;;;;;;;0.00;0.00;;;16.50;99.90;;;;;;6218313;23;20050;-83
2022/07/10 08:46:42;;;;;;;0.00;0.00;;;16.60;99.90;;;;;;6218433;23;20020;-83
2022/07/10 08:49:15;;;;;;;0.03;0.03;;;16.50;99.90;;;;;;6193158;23;20392;-84
2022/07/10 08:51:52;;;;;;;0.00;0.00;;;16.50;99.90;;;;;;6218061;23;20348;-84
2022/07/10 08:54:19;;;;;;;0.00;0.00;;;16.50;99.90;;;;;;6217284;23;20016;-84
2022/07/10 08:56:46;;;;;;;0.00;0.00;;;16.50;99.90;;;;;;6192328;23;20461;-82
2022/07/10 08:59:14;;;;;;;0.10;0.00;;;16.40;99.90;;;;;;6193980;23;20019;-84
2022/07/10 09:01:40;;;;;;;0.10;0.10;;;16.40;99.90;;;;;;6193147;23;20014;-83
2022/07/10 09:04:05;;;;;;;0.00;0.00;;;16.30;99.90;;;;;;6192960;23;20043;-82
2022/07/10 09:06:31;;;;;;;0.10;0.10;;;16.30;99.90;;;;;;6193660;23;20048;-83
2022/07/10 09:09:03;;;;;;;0.00;0.00;;;16.30;99.90;;;;;;6191844;23;20145;-82
2022/07/10 09:11:30;;;;;;;0.10;0.10;;;16.30;99.90;;;;;;6217205;23;20008;-83
2022/07/10 09:14:04;;;;;;;0.03;0.03;;;16.30;99.90;;;;;;6218502;23;20004;-84
2022/07/10 09:16:32;;;;;;;0.00;0.00;;;16.20;99.90;;;;;;6192550;23;20008;-82
2022/07/10 09:19:24;;;;;;;0.00;0.00;;;16.20;99.90;;;;;;6192868;23;20019;-83
2022/07/10 09:21:55;;;;;;;0.00;0.00;;;16.10;99.90;;;;;;6193308;23;20012;-83
2022/07/10 09:37:41;;;;;;;0.00;0.00;;;16.40;99.90;;;;;;6278727;22;20614;-82
2022/07/10 09:40:08;;;;;;;0.10;0.10;;;16.80;99.90;;;;;;6253897;22;20023;-82
2022/07/10 09:42:43;;;;;;;0.10;0.10;;;17.20;99.90;;;;;;6253623;22;20008;-82
2022/07/10 09:45:17;;;;;;;0.03;0.00;;;17.50;99.90;;;;;;6253410;22;20046;-82
2022/07/10 09:47:52;;;;;;;0.00;0.00;;;17.80;99.90;;;;;;6252557;22;20454;-83
2022/07/10 09:50:22;;;;;;;0.00;0.00;;;18.10;99.90;;;;;;6278921;22;20347;-82
2022/07/10 09:52:53;;;;;;;0.10;0.10;;;18.20;99.90;;;;;;6252204;22;20011;-82
2022/07/10 09:55:31;;;;;;;0.13;0.10;;;18.30;99.90;;;;;;6277414;22;20007;-82
2022/07/10 09:58:05;;;;;;;0.10;0.10;;;18.20;99.90;;;;;;6252896;22;20450;-82
2022/07/10 10:00:36;;;;;;;0.00;0.00;;;18.00;99.90;;;;;;6278749;22;20100;-83
2022/07/10 10:03:03;;;;;;;0.10;0.10;;;17.90;99.90;;;;;;6253169;22;20016;-84
2022/07/10 10:05:52;;;;;;;0.00;0.00;;;17.90;99.90;;;;;;6278636;22;20015;-82
2022/07/10 10:08:27;;;;;;;0.00;0.00;;;17.90;99.90;;;;;;6279021;22;20007;-82
2022/07/10 10:10:56;;;;;;;0.20;0.20;;;18.20;99.90;;;;;;6253713;22;20451;-83
2022/07/10 10:13:23;;;;;;;0.10;0.10;;;18.40;99.90;;;;;;6277791;22;20015;-83
2022/07/10 10:15:53;;;;;;;0.08;0.00;;;18.80;99.90;;;;;;6253311;22;20011;-82
2022/07/10 10:18:20;;;;;;;0.00;0.00;;;19.20;99.90;;;;;;6278719;22;20007;-82
2022/07/10 10:20:48;;;;;;;0.10;0.10;;;19.60;99.90;;;;;;6252879;22;20021;-81
2022/07/10 10:23:20;;;;;;;0.10;0.10;;;19.80;99.90;;;;;;6278225;22;20391;-82
2022/07/10 10:25:50;;;;;;;0.00;0.00;;;20.00;99.90;;;;;;6252421;22;20046;-86
2022/07/10 10:28:17;;;;;;;0.15;0.10;;;20.10;99.90;;;;;;6253806;22;20022;-86
2022/07/10 10:30:45;;;;;;;0.05;0.05;;;19.90;99.90;;;;;;6253865;22;20007;-86
2022/07/10 10:33:42;;;;;;;0.17;0.10;;;19.60;99.90;;;;;;6252998;22;20011;-86
2022/07/10 10:36:13;;;;;;;0.10;0.10;;;19.10;99.90;;;;;;6248280;22;20011;-84
2022/07/10 10:38:47;;;;;;;0.00;0.00;;;18.70;99.90;;;;;;6252459;22;20012;-82
2022/07/10 10:41:42;;;;;;;0.38;0.10;;;18.40;99.90;;;;;;6252901;22;20054;-82
2022/07/10 10:44:08;;;;;;;0.15;0.15;;;18.20;99.90;;;;;;6252929;22;20011;-82
2022/07/10 10:46:35;;;;;;;0.10;0.10;;;18.20;99.90;;;;;;6278059;22;20377;-82
2022/07/10 10:49:06;;;;;;;0.10;0.10;;;18.70;99.90;;;;;;6278397;22;20019;-83
2022/07/10 10:51:57;;;;;;;0.30;0.10;;;19.20;99.90;;;;;;6252111;22;20044;-83
2022/07/10 10:54:22;;;;;;;0.05;0.05;;;19.80;99.90;;;;;;6253083;22;20018;-82
2022/07/10 10:57:16;;;;;;;0.05;0.05;;;20.10;99.90;;;;;;6252254;22;20447;-85
2022/07/10 10:59:48;;;;;;;0.00;0.00;;;20.10;99.90;;;;;;6251939;22;20011;-87
2022/07/10 11:02:36;;;;;;;0.10;0.10;;;20.00;99.90;;;;;;6253283;22;20100;-86
2022/07/10 11:05:11;;;;;;;0.10;0.10;;;19.80;99.90;;;;;;6278749;22;20242;-85
2022/07/10 11:07:56;;;;;;;0.08;0.08;;;19.40;99.90;;;;;;6252557;22;20037;-86
2022/07/10 11:10:31;;;;;;;0.05;0.05;;;19.10;99.90;;;;;;6279146;22;20015;-86
2022/07/10 11:13:03;;;;;;;0.00;0.00;;;18.80;99.90;;;;;;6254089;22;20011;-86
2022/07/10 11:15:30;;;;;;;0.10;0.10;;;18.70;99.90;;;;;;6252054;22;20064;-86
2022/07/10 11:18:04;;;;;;;0.10;0.10;;;18.70;99.90;;;;;;6251118;22;20054;-86
2022/07/10 11:20:33;;;;;;;0.10;0.10;;;18.90;99.90;;;;;;6251513;22;20411;-85
2022/07/10 11:23:24;;;;;;;0.08;0.08;;;19.10;99.90;;;;;;6251135;22;20008;-87
2022/07/10 11:26:10;;;;;;;0.20;0.10;;;19.40;99.90;;;;;;6251273;22;20019;-86
2022/07/10 11:28:53;;;;;;;0.10;0.10;;;19.60;99.90;;;;;;6251106;22;20477;-87
2022/07/10 11:31:21;;;;;;;0.00;0.00;;;19.80;99.90;;;;;;6253845;22;20014;-86
2022/07/10 11:33:51;;;;;;;0.00;0.00;;;20.00;99.90;;;;;;6253426;22;20078;-86
2022/07/10 11:36:25;;;;;;;0.05;0.05;;;19.90;99.90;;;;;;6253588;22;20015;-86
2022/07/10 11:39:00;;;;;;;0.10;0.10;;;19.90;99.90;;;;;;6278119;22;20148;-87
2022/07/10 11:41:27;;;;;;;0.08;0.08;;;19.70;99.90;;;;;;6252575;22;20015;-85
2022/07/10 11:43:57;;;;;;;0.05;0.05;;;19.50;99.90;;;;;;6253290;22;20023;-86
2022/07/10 11:46:28;;;;;;;0.10;0.10;;;19.20;99.90;;;;;;6253486;22;20385;-86
2022/07/10 11:48:56;;;;;;;0.03;0.03;;;19.00;99.90;;;;;;6254625;22;20022;-86
2022/07/10 11:51:31;;;;;;;0.08;0.08;;;18.80;99.90;;;;;;6254450;22;20046;-85
2022/07/10 11:54:06;;;;;;;0.10;0.10;;;18.70;99.90;;;;;;6252360;22;20022;-85
2022/07/10 11:56:34;;;;;;;0.10;0.10;;;18.60;99.90;;;;;;6253261;22;20019;-85
2022/07/10 11:59:00;;;;;;;0.10;0.10;;;18.70;99.90;;;;;;6251295;22;20007;-85
2022/07/10 12:01:28;;;;;;;0.08;0.08;;;18.90;99.90;;;;;;6253082;22;20027;-86
2022/07/10 12:04:05;;;;;;;0.10;0.10;;;19.00;99.90;;;;;;6278291;22;20007;-86
2022/07/10 12:06:33;;;;;;;0.00;0.00;;;19.30;99.90;;;;;;6254664;22;20328;-86
2022/07/10 12:09:19;;;;;;;0.10;0.10;;;19.50;99.90;;;;;;6253254;22;20007;-86
2022/07/10 12:11:59;;;;;;;0.10;0.10;;;19.70;99.90;;;;;;6254686;22;20007;-86
2022/07/10 12:14:25;;;;;;;0.10;0.10;;;19.90;99.90;;;;;;6254319;22;20383;-86
2022/07/10 12:16:52;;;;;;;0.10;0.10;;;20.00;99.90;;;;;;6255010;22;20003;-86
2022/07/10 12:19:23;;;;;;;0.10;0.10;;;20.10;99.90;;;;;;6254859;22;20008;-85
2022/07/10 12:21:49;;;;;;;0.00;0.00;;;20.00;99.90;;;;;;6254302;22;20347;-85
2022/07/10 12:24:21;;;;;;;0.10;0.10;;;19.90;99.90;;;;;;6254362;22;20015;-85
2022/07/10 12:26:48;;;;;;;0.10;0.00;;;19.80;99.90;;;;;;6254232;22;20011;-85
2022/07/10 12:29:22;;;;;;;0.00;0.00;;;19.70;99.90;;;;;;6254494;22;20017;-86
2022/07/10 12:31:49;;;;;;;0.00;0.00;;;19.60;99.90;;;;;;6254811;22;20047;-86
2022/07/10 12:34:18;;;;;;;0.00;0.00;;;19.60;99.90;;;;;;6256425;22;20018;-86
2022/07/10 12:36:51;;;;;;;0.00;0.00;;;19.50;99.90;;;;;;6254537;22;20054;-86
2022/07/10 12:39:21;;;;;;;0.08;0.08;;;19.50;99.90;;;;;;6254308;22;20034;-85
2022/07/10 12:42:04;;;;;;;0.00;0.00;;;19.50;99.90;;;;;;6280366;22;20626;-86
2022/07/10 12:44:46;;;;;;;0.00;0.00;;;19.50;99.90;;;;;;6254975;22;20018;-86
2022/07/10 12:47:16;;;;;;;0.10;0.10;;;19.50;99.90;;;;;;6254300;22;20022;-86
2022/07/10 12:49:51;;;;;;;0.10;0.10;;;19.70;99.90;;;;;;6279453;22;20019;-86
2022/07/10 12:52:34;;;;;;;0.10;0.10;;;19.90;99.90;;;;;;6253949;22;20043;-85
2022/07/10 12:55:21;;;;;;;0.10;0.10;;;19.90;99.90;;;;;;6254311;22;20014;-85
2022/07/10 12:58:04;;;;;;;0.00;0.00;;;20.00;99.90;;;;;;6255650;22;20022;-85
2022/07/10 13:00:49;;;;;;;0.10;0.10;;;20.10;99.90;;;;;;6254639;22;20011;-84
2022/07/10 13:03:22;;;;;;;0.00;0.00;;;20.10;99.90;;;;;;6254073;22;20030;-85
2022/07/10 13:05:47;;;;;;;0.03;0.03;;;20.20;99.90;;;;;;6254700;22;20333;-85
2022/07/10 13:08:15;;;;;;;0.00;0.00;;;20.20;99.90;;;;;;6279750;22;20293;-86